createdAt,value
2022-08-26T00:02:13.192Z,2.28
2022-08-26T00:04:45.571Z,2.60
2022-08-26T00:07:18.266Z,2.45
2022-08-26T00:09:47.895Z,2.33
2022-08-26T00:12:31.468Z,2.33
2022-08-26T00:15:09.728Z,1.90
2022-08-26T00:20:15.311Z,2.90
2022-08-26T00:22:48.000Z,3.10
2022-08-26T00:25:19.541Z,2.65
2022-08-26T00:27:50.513Z,2.10
2022-08-26T00:30:26.588Z,2.50
2022-08-26T00:32:59.096Z,2.50
2022-08-26T00:35:30.873Z,2.83
2022-08-26T00:38:10.702Z,2.40
2022-08-26T00:40:46.057Z,3.28
2022-08-26T00:43:17.090Z,2.53
2022-08-26T00:45:54.031Z,2.08
2022-08-26T00:48:30.761Z,2.20
2022-08-26T00:51:12.362Z,2.38
2022-08-26T00:53:50.874Z,2.38
2022-08-26T00:56:29.464Z,1.90
2022-08-26T00:59:01.662Z,2.15
2022-08-26T01:01:36.587Z,2.78
2022-08-26T01:04:09.264Z,2.75
2022-08-26T01:06:41.122Z,2.13
2022-08-26T01:09:17.608Z,2.40
2022-08-26T01:11:48.724Z,2.30
2022-08-26T01:14:23.486Z,2.00
2022-08-26T01:16:53.590Z,2.00
2022-08-26T01:19:30.013Z,2.13
2022-08-26T01:22:06.183Z,1.92
2022-08-26T01:24:43.054Z,2.10
2022-08-26T01:27:17.109Z,2.38
2022-08-26T01:29:49.738Z,2.60
2022-08-26T01:32:28.378Z,2.77
2022-08-26T01:35:00.678Z,2.20
2022-08-26T01:37:40.429Z,2.38
2022-08-26T01:40:22.211Z,2.55
2022-08-26T01:42:53.064Z,2.85
2022-08-26T01:45:26.926Z,2.50
2022-08-26T01:48:04.978Z,2.45
2022-08-26T01:50:41.444Z,2.75
2022-08-26T01:53:17.923Z,2.08
2022-08-26T01:55:55.953Z,2.13
2022-08-26T01:58:29.424Z,2.25
2022-08-26T02:03:38.867Z,2.25
2022-08-26T02:06:13.619Z,2.53
2022-08-26T02:08:46.589Z,1.88
2022-08-26T02:11:19.162Z,2.80
2022-08-26T02:13:53.292Z,2.45
2022-08-26T02:16:39.199Z,2.28
2022-08-26T02:19:17.528Z,1.92
2022-08-26T02:21:51.353Z,1.92
2022-08-26T02:24:27.763Z,2.30
2022-08-26T02:27:04.641Z,2.22
2022-08-26T02:29:46.556Z,2.40
2022-08-26T02:32:22.098Z,2.20
2022-08-26T02:34:54.100Z,2.65
2022-08-26T02:37:25.048Z,2.40
2022-08-26T02:40:04.801Z,2.08
2022-08-26T02:42:45.014Z,2.00
2022-08-26T02:45:14.934Z,1.95
2022-08-26T02:47:57.358Z,1.90
2022-08-26T02:50:28.877Z,2.10
2022-08-26T02:52:58.990Z,2.00
2022-08-26T02:55:28.905Z,1.80
2022-08-26T02:58:07.490Z,2.10
2022-08-26T03:00:52.453Z,1.90
2022-08-26T03:03:23.846Z,2.03
2022-08-26T03:05:53.681Z,1.90
2022-08-26T03:08:24.390Z,1.83
2022-08-26T03:10:55.293Z,1.67
2022-08-26T03:13:28.541Z,2.10
2022-08-26T03:16:00.704Z,1.97
2022-08-26T03:18:39.041Z,1.83
2022-08-26T03:21:10.897Z,2.40
2022-08-26T03:23:42.357Z,2.20
2022-08-26T03:26:13.734Z,1.90
2022-08-26T03:29:00.554Z,2.95
2022-08-26T03:31:34.646Z,2.25
2022-08-26T03:34:08.623Z,1.95
2022-08-26T03:36:39.415Z,2.60
2022-08-26T03:39:12.293Z,1.45
2022-08-26T03:41:45.162Z,1.95
2022-08-26T03:44:17.592Z,2.00
2022-08-26T03:46:49.828Z,2.35
2022-08-26T03:49:21.642Z,1.83
2022-08-26T03:52:00.377Z,1.80
2022-08-26T03:54:35.516Z,2.38
2022-08-26T03:57:06.375Z,1.80
2022-08-26T03:59:42.000Z,2.08
2022-08-26T04:02:12.000Z,3.17
2022-08-26T04:04:42.449Z,1.90
2022-08-26T04:07:12.350Z,2.10
2022-08-26T04:09:42.284Z,1.95
2022-08-26T04:12:12.837Z,2.22
2022-08-26T04:14:45.184Z,1.35
2022-08-26T04:17:15.818Z,2.10
2022-08-26T04:19:46.430Z,1.80
2022-08-26T04:22:24.075Z,1.70
2022-08-26T04:24:56.110Z,1.90
2022-08-26T04:27:26.947Z,1.70
2022-08-26T04:30:00.656Z,1.98
2022-08-26T04:32:38.758Z,1.90
2022-08-26T04:35:10.030Z,2.03
2022-08-26T04:37:43.038Z,1.48
2022-08-26T04:40:14.277Z,1.98
2022-08-26T04:42:44.471Z,1.80
2022-08-26T04:45:18.673Z,2.15
2022-08-26T04:47:56.535Z,2.42
2022-08-26T04:50:29.467Z,1.83
2022-08-26T04:53:00.618Z,2.35
2022-08-26T04:55:44.199Z,2.25
2022-08-26T04:58:18.150Z,2.10
2022-08-26T05:00:52.684Z,2.08
2022-08-26T05:03:25.773Z,2.47
2022-08-26T05:05:57.357Z,2.70
2022-08-26T05:08:30.413Z,2.13
2022-08-26T05:11:00.433Z,1.90
2022-08-26T05:13:31.400Z,2.28
2022-08-26T05:16:13.122Z,2.42
2022-08-26T05:18:43.604Z,1.83
2022-08-26T05:21:20.982Z,1.98
2022-08-26T05:23:51.641Z,2.22
2022-08-26T05:26:23.025Z,2.03
2022-08-26T05:28:55.262Z,1.85
2022-08-26T05:31:37.247Z,2.38
2022-08-26T05:34:12.610Z,1.67
2022-08-26T05:36:42.647Z,2.00
2022-08-26T05:39:14.464Z,2.25
2022-08-26T05:41:45.515Z,1.80
2022-08-26T05:44:22.386Z,1.92
2022-08-26T05:46:56.927Z,1.80
2022-08-26T05:49:26.958Z,1.80
2022-08-26T05:51:56.825Z,1.77
2022-08-26T05:54:26.966Z,1.77
2022-08-26T05:56:56.920Z,2.20
2022-08-26T05:59:27.097Z,1.33
2022-08-26T06:02:00.632Z,2.25
2022-08-26T06:07:07.466Z,2.15
2022-08-26T06:09:42.153Z,1.52
2022-08-26T06:12:13.042Z,1.40
2022-08-26T06:14:44.856Z,1.77
2022-08-26T06:17:21.599Z,1.33
2022-08-26T06:19:53.476Z,1.60
2022-08-26T06:22:35.763Z,1.85
2022-08-26T06:25:21.880Z,2.78
2022-08-26T06:27:52.689Z,1.50
2022-08-26T06:30:25.008Z,1.50
2022-08-26T06:32:59.006Z,1.85
2022-08-26T06:38:02.428Z,1.55
2022-08-26T06:40:36.586Z,1.55
2022-08-26T06:43:09.577Z,1.70
2022-08-26T06:45:41.189Z,1.60
2022-08-26T06:48:15.986Z,2.28
2022-08-26T06:50:46.405Z,1.80
2022-08-26T06:53:20.794Z,1.60
2022-08-26T06:55:51.859Z,1.77
2022-08-26T06:58:22.949Z,1.40
2022-08-26T07:01:03.057Z,1.77
2022-08-26T07:03:44.233Z,1.60
2022-08-26T07:06:19.648Z,1.45
2022-08-26T07:08:49.947Z,1.85
2022-08-26T07:11:20.207Z,1.88
2022-08-26T07:13:51.583Z,2.03
2022-08-26T07:16:25.882Z,2.08
2022-08-26T07:19:03.295Z,1.33
2022-08-26T07:21:35.783Z,1.50
2022-08-26T07:24:08.575Z,1.40
2022-08-26T07:26:42.969Z,1.33
2022-08-26T07:29:17.117Z,1.90
2022-08-26T07:31:47.014Z,1.67
2022-08-26T07:34:22.983Z,2.10
2022-08-26T07:36:53.522Z,1.98
2022-08-26T07:39:31.521Z,2.00
2022-08-26T07:42:07.869Z,1.70
2022-08-26T07:44:42.526Z,2.03
2022-08-26T07:47:25.299Z,1.70
2022-08-26T07:50:03.669Z,1.67
2022-08-26T07:52:39.074Z,1.95
2022-08-26T07:55:11.908Z,1.60
2022-08-26T07:57:42.285Z,1.55
2022-08-26T08:00:18.702Z,1.90
2022-08-26T08:02:49.784Z,1.58
2022-08-26T08:05:27.271Z,1.67
2022-08-26T08:08:27.049Z,1.35
2022-08-26T08:11:01.019Z,1.55
2022-08-26T08:13:34.602Z,1.10
2022-08-26T08:18:43.221Z,1.40
2022-08-26T08:21:21.628Z,1.10
2022-08-26T08:23:54.779Z,1.77
2022-08-26T08:26:28.335Z,1.50
2022-08-26T08:29:00.554Z,1.95
2022-08-26T08:31:57.056Z,1.58
2022-08-26T08:34:29.211Z,1.67
2022-08-26T08:37:08.720Z,1.55
2022-08-26T08:39:41.070Z,1.50
2022-08-26T08:42:40.596Z,1.30
2022-08-26T08:45:15.474Z,1.40
2022-08-26T08:47:51.827Z,2.00
2022-08-26T08:50:30.840Z,1.27
2022-08-26T08:53:15.846Z,1.10
2022-08-26T08:56:04.852Z,2.10
2022-08-26T08:58:57.381Z,1.20
2022-08-26T09:01:47.003Z,2.00
2022-08-26T09:05:02.459Z,1.30
2022-08-26T09:07:40.911Z,1.77
2022-08-26T09:10:31.228Z,1.50
2022-08-26T09:13:04.148Z,1.25
2022-08-26T09:18:17.966Z,1.73
2022-08-26T09:20:56.025Z,1.33
2022-08-26T09:23:26.659Z,1.55
2022-08-26T09:26:04.943Z,1.90
2022-08-26T09:28:37.846Z,1.73
2022-08-26T09:31:17.546Z,1.30
2022-08-26T09:33:47.906Z,1.80
2022-08-26T09:36:28.822Z,2.25
2022-08-26T09:38:58.902Z,2.08
2022-08-26T09:41:37.835Z,1.95
2022-08-26T09:44:17.168Z,3.42
2022-08-26T09:47:01.182Z,2.70
2022-08-26T09:49:39.430Z,2.88
2022-08-26T09:52:18.833Z,2.00
2022-08-26T09:55:05.417Z,2.10
2022-08-26T09:57:48.710Z,2.10
2022-08-26T10:00:38.383Z,2.50
2022-08-26T10:03:17.222Z,2.13
2022-08-26T10:05:50.260Z,2.13
2022-08-26T10:08:50.789Z,2.58
2022-08-26T10:11:30.592Z,2.28
2022-08-26T10:14:12.719Z,2.53
2022-08-26T10:16:50.275Z,1.95
2022-08-26T10:19:24.432Z,1.88
2022-08-26T10:22:07.235Z,2.08
2022-08-26T10:24:50.838Z,1.80
2022-08-26T10:27:30.370Z,2.55
2022-08-26T10:30:07.814Z,1.85
2022-08-26T10:32:43.730Z,2.08
2022-08-26T10:35:16.821Z,1.80
2022-08-26T10:37:49.530Z,2.20
2022-08-26T10:40:28.421Z,1.95
2022-08-26T10:43:07.286Z,2.00
2022-08-26T10:45:50.608Z,1.83
2022-08-26T10:48:25.667Z,1.80
2022-08-26T10:51:10.618Z,1.80
2022-08-26T10:53:52.465Z,1.75
2022-08-26T10:56:41.379Z,2.40
2022-08-26T10:59:23.233Z,1.80
2022-08-26T11:02:07.402Z,2.08
2022-08-26T11:04:52.877Z,2.78
2022-08-26T11:08:02.599Z,2.45
2022-08-26T11:11:06.031Z,1.90
2022-08-26T11:14:06.089Z,1.80
2022-08-26T11:16:44.108Z,2.17
2022-08-26T11:20:01.424Z,2.40
2022-08-26T11:22:47.926Z,2.50
2022-08-26T11:25:18.726Z,2.17
2022-08-26T11:28:10.919Z,2.72
2022-08-26T11:30:57.877Z,2.38
2022-08-26T11:33:51.399Z,2.10
2022-08-26T11:37:04.150Z,2.38
2022-08-26T11:39:54.633Z,2.40
2022-08-26T11:42:37.012Z,2.20
2022-08-26T11:45:20.408Z,2.00
2022-08-26T11:47:50.361Z,1.98
2022-08-26T11:50:26.605Z,2.15
2022-08-26T11:53:03.916Z,2.00
2022-08-26T11:55:46.091Z,2.00
2022-08-26T11:58:19.736Z,1.85
2022-08-26T12:00:55.746Z,2.13
2022-08-26T12:06:00.332Z,1.73
2022-08-26T12:08:41.366Z,1.65
2022-08-26T12:11:25.641Z,2.42
2022-08-26T12:14:05.267Z,2.17
2022-08-26T12:16:44.092Z,1.80
2022-08-26T12:19:28.665Z,2.47
2022-08-26T12:22:10.543Z,2.10
2022-08-26T12:24:46.940Z,2.10
2022-08-26T12:27:26.932Z,1.90
2022-08-26T12:30:12.501Z,2.35
2022-08-26T12:32:51.032Z,1.90
2022-08-26T12:35:34.601Z,2.30
2022-08-26T12:38:07.689Z,1.77
2022-08-26T12:40:45.131Z,1.90
2022-08-26T12:43:43.781Z,1.67
2022-08-26T12:46:16.887Z,2.03
2022-08-26T12:48:52.763Z,1.83
2022-08-26T12:51:41.961Z,2.20
2022-08-26T12:54:18.434Z,15.05
2022-08-26T12:56:51.993Z,10.73
2022-08-26T12:59:41.022Z,6.65
2022-08-26T13:02:10.989Z,3.70
2022-08-26T13:04:44.131Z,6.03
2022-08-26T13:07:25.645Z,7.80
2022-08-26T13:09:57.610Z,2.30
2022-08-26T13:12:30.957Z,5.68
2022-08-26T13:17:42.000Z,2.20
2022-08-26T13:20:12.637Z,1.95
2022-08-26T13:22:42.639Z,3.40
2022-08-26T13:25:13.161Z,2.47
2022-08-26T13:27:43.380Z,2.03
2022-08-26T13:30:16.787Z,2.03
2022-08-26T13:35:16.652Z,1.98
2022-08-26T13:37:47.313Z,1.80
2022-08-26T13:40:17.214Z,2.80
2022-08-26T13:42:49.808Z,2.13
2022-08-26T13:45:22.548Z,2.45
2022-08-26T13:47:54.657Z,3.63
2022-08-26T13:50:29.289Z,2.08
2022-08-26T13:53:05.141Z,2.58
2022-08-26T13:55:36.881Z,2.13
2022-08-26T13:58:14.218Z,1.98
2022-08-26T14:00:47.576Z,1.92
2022-08-26T14:03:18.883Z,2.00
2022-08-26T14:05:50.537Z,2.00
2022-08-26T14:08:22.272Z,2.28
2022-08-26T14:10:52.305Z,2.67
2022-08-26T14:13:23.538Z,2.08
2022-08-26T14:16:01.295Z,8.27
2022-08-26T14:18:42.572Z,2.40
2022-08-26T14:21:17.991Z,2.63
2022-08-26T14:26:28.560Z,2.95
2022-08-26T14:29:02.921Z,5.72
2022-08-26T14:34:11.131Z,2.15
2022-08-26T14:36:47.112Z,2.22
2022-08-26T14:39:19.459Z,2.10
2022-08-26T14:41:54.529Z,2.17
2022-08-26T14:44:29.935Z,3.67
2022-08-26T14:47:05.284Z,2.45
2022-08-26T14:49:37.133Z,2.17
2022-08-26T14:52:10.011Z,2.42
2022-08-26T14:54:38.036Z,2.38
2022-08-26T14:57:13.029Z,2.22
2022-08-26T14:59:45.498Z,2.00
2022-08-26T15:02:33.341Z,2.42
2022-08-26T15:05:08.678Z,2.28
2022-08-26T15:07:41.794Z,2.20
2022-08-26T15:10:21.128Z,2.47
2022-08-26T15:12:52.305Z,1.90
2022-08-26T15:15:23.686Z,2.17
2022-08-26T15:17:57.188Z,2.00
2022-08-26T15:23:06.365Z,4.13
2022-08-26T15:25:39.168Z,2.05
2022-08-26T15:28:11.729Z,2.58
2022-08-26T15:30:41.976Z,2.63
2022-08-26T15:33:15.043Z,2.13
2022-08-26T15:35:46.341Z,2.40
2022-08-26T15:38:16.084Z,3.33
2022-08-26T15:40:48.579Z,2.47
2022-08-26T15:43:28.400Z,4.45
2022-08-26T15:46:00.245Z,2.00
2022-08-26T15:48:35.108Z,2.25
2022-08-26T15:51:05.264Z,2.67
2022-08-26T15:53:38.518Z,2.28
2022-08-26T15:56:09.217Z,2.60
2022-08-26T15:58:42.438Z,2.42
2022-08-26T16:01:18.165Z,1.75
2022-08-26T16:04:00.704Z,1.97
2022-08-26T16:06:37.750Z,2.20
2022-08-26T16:09:12.854Z,2.13
2022-08-26T16:11:43.801Z,2.25
2022-08-26T16:14:16.906Z,3.92
2022-08-26T16:16:47.469Z,2.25
2022-08-26T16:19:21.917Z,2.15
2022-08-26T16:21:54.602Z,2.63
2022-08-26T16:24:29.762Z,2.47
2022-08-26T16:27:00.917Z,2.20
2022-08-26T16:29:34.996Z,2.30
2022-08-26T16:32:12.116Z,2.45
2022-08-26T16:34:56.633Z,3.13
2022-08-26T16:37:28.057Z,2.83
2022-08-26T16:39:57.848Z,2.90
2022-08-26T16:42:36.646Z,2.58
2022-08-26T16:45:10.016Z,3.05
2022-08-26T16:47:40.762Z,2.50
2022-08-26T16:50:14.561Z,3.00
2022-08-26T16:52:44.935Z,2.67
2022-08-26T16:55:18.498Z,3.00
2022-08-26T16:57:54.271Z,5.18
2022-08-26T17:00:35.985Z,2.50
2022-08-26T17:03:11.630Z,2.90
2022-08-26T17:05:45.086Z,3.10
2022-08-26T17:08:24.323Z,2.83
2022-08-26T17:11:04.802Z,2.67
2022-08-26T17:13:36.674Z,3.33
2022-08-26T17:16:11.375Z,3.20
2022-08-26T17:18:42.056Z,3.38
2022-08-26T17:21:16.676Z,3.47
2022-08-26T17:23:46.903Z,3.40
2022-08-26T17:26:17.101Z,3.05
2022-08-26T17:28:47.435Z,2.83
2022-08-26T17:31:19.897Z,3.00
2022-08-26T17:33:53.480Z,3.05
2022-08-26T17:36:29.785Z,3.00
2022-08-26T17:39:03.565Z,3.28
2022-08-26T17:41:37.795Z,3.17
2022-08-26T17:44:11.403Z,3.25
2022-08-26T17:46:45.658Z,3.03
2022-08-26T17:49:22.778Z,3.00
2022-08-26T17:51:55.481Z,2.85
2022-08-26T17:54:25.602Z,2.85
2022-08-26T17:56:57.145Z,3.50
2022-08-26T17:59:30.832Z,3.20
2022-08-26T18:02:04.145Z,4.15
2022-08-26T18:04:41.326Z,3.00
2022-08-26T18:07:14.989Z,3.60
2022-08-26T18:09:44.992Z,3.60
2022-08-26T18:12:15.878Z,3.35
2022-08-26T18:14:45.589Z,3.97
2022-08-26T18:17:17.538Z,3.50
2022-08-26T18:19:50.759Z,3.65
2022-08-26T18:22:23.354Z,3.33
2022-08-26T18:24:58.939Z,2.90
2022-08-26T18:27:30.986Z,2.83
2022-08-26T18:30:04.153Z,2.80
2022-08-26T18:32:35.827Z,3.35
2022-08-26T18:35:11.563Z,2.47
2022-08-26T18:37:44.534Z,3.67
2022-08-26T18:40:17.245Z,3.75
2022-08-26T18:42:49.290Z,3.22
2022-08-26T18:45:25.492Z,4.03
2022-08-26T18:47:55.383Z,3.17
2022-08-26T18:50:27.007Z,2.50
2022-08-26T18:53:00.330Z,3.22
2022-08-26T18:55:39.234Z,3.20
2022-08-26T18:58:10.114Z,4.05
2022-08-26T19:01:47.468Z,3.38
2022-08-26T19:05:28.068Z,3.25
2022-08-26T19:08:04.622Z,3.43
2022-08-26T19:10:37.623Z,3.42
2022-08-26T19:13:14.323Z,2.90
2022-08-26T19:15:47.207Z,3.50
2022-08-26T19:18:18.022Z,3.03
2022-08-26T19:20:49.568Z,3.40
2022-08-26T19:23:31.316Z,3.10
2022-08-26T19:26:06.141Z,3.47
2022-08-26T19:28:41.082Z,2.80
2022-08-26T19:31:12.731Z,2.78
2022-08-26T19:33:46.612Z,3.10
2022-08-26T19:36:23.013Z,3.00
2022-08-26T19:38:57.302Z,3.03
2022-08-26T19:41:37.060Z,3.22
2022-08-26T19:44:13.299Z,4.00
2022-08-26T19:46:44.010Z,3.10
2022-08-26T19:49:15.089Z,3.30
2022-08-26T19:51:46.585Z,4.03
2022-08-26T19:54:19.104Z,3.50
2022-08-26T19:56:49.819Z,3.28
2022-08-26T19:59:20.167Z,2.92
2022-08-26T20:02:00.364Z,3.08
2022-08-26T20:04:36.165Z,3.35
2022-08-26T20:07:13.071Z,2.53
2022-08-26T20:09:51.081Z,2.90
2022-08-26T20:12:21.678Z,3.10
2022-08-26T20:14:51.722Z,3.30
2022-08-26T20:17:21.681Z,3.03
2022-08-26T20:20:06.338Z,3.13
2022-08-26T20:22:56.680Z,2.75
2022-08-26T20:25:29.480Z,3.70
2022-08-26T20:28:00.427Z,2.97
2022-08-26T20:30:31.455Z,3.55
2022-08-26T20:33:01.551Z,2.70
2022-08-26T20:35:35.957Z,2.92
2022-08-26T20:38:05.983Z,2.88
2022-08-26T20:40:40.338Z,3.22
2022-08-26T20:43:12.285Z,3.45
2022-08-26T20:45:42.391Z,2.95
2022-08-26T20:48:12.562Z,3.13
2022-08-26T20:50:42.433Z,2.85
2022-08-26T20:53:12.250Z,3.03
2022-08-26T20:55:45.073Z,2.97
2022-08-26T20:58:17.754Z,3.20
2022-08-26T21:00:47.887Z,2.80
2022-08-26T21:03:18.275Z,3.20
2022-08-26T21:05:48.109Z,3.30
2022-08-26T21:08:18.208Z,3.20
2022-08-26T21:10:51.712Z,3.08
2022-08-26T21:13:22.655Z,2.97
2022-08-26T21:15:52.466Z,3.15
2022-08-26T21:18:22.281Z,3.35
2022-08-26T21:20:52.202Z,2.72
2022-08-26T21:23:25.408Z,3.20
2022-08-26T21:26:05.569Z,2.83
2022-08-26T21:28:38.876Z,3.08
2022-08-26T21:31:10.124Z,3.40
2022-08-26T21:33:41.868Z,3.15
2022-08-26T21:36:13.839Z,2.55
2022-08-26T21:38:44.328Z,2.83
2022-08-26T21:41:19.836Z,3.08
2022-08-26T21:43:53.681Z,3.30
2022-08-26T21:46:25.678Z,2.72
2022-08-26T21:49:05.187Z,3.10
2022-08-26T21:51:38.789Z,2.75
2022-08-26T21:56:47.341Z,2.72
2022-08-26T21:59:20.694Z,3.65
2022-08-26T22:01:51.459Z,3.78
2022-08-26T22:04:21.793Z,3.42
2022-08-26T22:06:57.671Z,3.33
2022-08-26T22:09:30.967Z,3.80
2022-08-26T22:12:05.328Z,3.05
2022-08-26T22:14:36.444Z,2.95
2022-08-26T22:17:09.796Z,4.38
2022-08-26T22:19:45.860Z,4.75
2022-08-26T22:22:17.661Z,4.05
2022-08-26T22:24:48.334Z,4.20
2022-08-26T22:27:21.772Z,3.95
2022-08-26T22:29:52.211Z,3.75
2022-08-26T22:32:21.903Z,4.20
2022-08-26T22:34:52.231Z,3.63
2022-08-26T22:37:22.292Z,3.55
2022-08-26T22:39:52.455Z,3.53
2022-08-26T22:42:25.540Z,3.50
2022-08-26T22:44:55.547Z,3.25
2022-08-26T22:47:25.654Z,3.08
2022-08-26T22:49:55.587Z,2.80
2022-08-26T22:52:25.622Z,3.20
2022-08-26T22:54:55.631Z,3.60
2022-08-26T22:57:30.904Z,3.13
2022-08-26T23:00:00.820Z,3.53
2022-08-26T23:02:36.193Z,3.75
2022-08-26T23:05:07.884Z,3.80
2022-08-26T23:07:39.283Z,4.03
2022-08-26T23:10:11.562Z,3.90
2022-08-26T23:12:44.011Z,3.88
2022-08-26T23:15:15.090Z,3.83
2022-08-26T23:17:46.518Z,3.65
2022-08-26T23:20:17.780Z,4.03
2022-08-26T23:22:48.516Z,3.83
2022-08-26T23:25:19.161Z,4.28
2022-08-26T23:27:53.991Z,4.25
2022-08-26T23:30:28.397Z,4.45
2022-08-26T23:32:58.942Z,3.83
2022-08-26T23:35:27.127Z,4.90
2022-08-26T23:37:57.868Z,4.03
2022-08-26T23:40:35.970Z,4.05
2022-08-26T23:43:11.660Z,4.45
2022-08-26T23:45:42.804Z,3.75
2022-08-26T23:48:12.537Z,3.70
2022-08-26T23:50:54.819Z,4.07
2022-08-26T23:53:29.846Z,4.22
2022-08-26T23:56:00.260Z,4.50
2022-08-26T23:58:35.977Z,4.22
